createdAt,value
2019-05-26T00:00:11.651Z,50.21
2019-05-26T00:02:57.671Z,50.49
2019-05-26T00:05:43.607Z,50.68
2019-05-26T00:08:29.892Z,50.72
2019-05-26T00:11:16.170Z,51.06
2019-05-26T00:14:02.448Z,51.12
2019-05-26T00:16:48.523Z,51.15
2019-05-26T00:19:34.522Z,50.94
2019-05-26T00:22:20.434Z,50.97
2019-05-26T00:25:06.439Z,50.84
2019-05-26T00:27:52.881Z,50.53
2019-05-26T00:30:39.770Z,50.87
2019-05-26T00:33:26.070Z,51.45
2019-05-26T00:36:12.634Z,51.71
2019-05-26T00:38:58.950Z,51.43
2019-05-26T00:41:44.865Z,52.07
2019-05-26T00:44:32.401Z,51.67
2019-05-26T00:47:18.462Z,51.79
2019-05-26T00:50:06.622Z,52.10
2019-05-26T00:52:56.356Z,52.31
2019-05-26T00:55:41.179Z,52.89
2019-05-26T00:58:27.299Z,52.86
2019-05-26T01:01:13.342Z,53.04
2019-05-26T01:03:59.631Z,53.34
2019-05-26T01:06:49.958Z,53.52
2019-05-26T01:09:42.329Z,54.12
2019-05-26T01:12:28.323Z,54.10
2019-05-26T01:15:14.212Z,54.27
2019-05-26T01:18:00.623Z,55.07
2019-05-26T01:20:46.905Z,54.98
2019-05-26T01:23:32.986Z,55.27
2019-05-26T01:26:19.008Z,55.62
2019-05-26T01:29:04.991Z,55.84
2019-05-26T01:31:51.054Z,56.21
2019-05-26T01:34:37.075Z,56.41
2019-05-26T01:37:25.369Z,56.70
2019-05-26T01:40:11.462Z,57.13
2019-05-26T01:42:57.780Z,57.25
2019-05-26T01:45:43.921Z,57.46
2019-05-26T01:48:30.220Z,57.79
2019-05-26T01:51:16.416Z,58.03
2019-05-26T01:54:10.971Z,58.16
2019-05-26T01:56:57.185Z,58.50
2019-05-26T01:59:43.504Z,58.61
2019-05-26T02:02:29.809Z,58.68
2019-05-26T02:05:16.104Z,58.72
2019-05-26T02:08:02.441Z,58.97
2019-05-26T02:10:48.634Z,59.19
2019-05-26T02:13:37.559Z,59.31
2019-05-26T02:16:23.622Z,59.49
2019-05-26T02:19:09.608Z,60.11
2019-05-26T02:21:55.868Z,60.40
2019-05-26T02:24:41.863Z,61.18
2019-05-26T02:27:28.218Z,61.67
2019-05-26T02:30:14.223Z,61.63
2019-05-26T02:33:00.613Z,62.32
2019-05-26T02:35:46.703Z,62.26
2019-05-26T02:38:33.043Z,62.19
2019-05-26T02:41:19.275Z,63.01
2019-05-26T02:44:06.172Z,63.08
2019-05-26T02:46:52.190Z,63.47
2019-05-26T02:49:38.669Z,63.79
2019-05-26T02:52:24.795Z,64.02
2019-05-26T02:55:11.052Z,64.24
2019-05-26T02:57:57.288Z,64.42
2019-05-26T03:00:46.141Z,64.48
2019-05-26T03:03:32.655Z,65.02
2019-05-26T03:06:19.784Z,65.24
2019-05-26T03:09:21.730Z,65.46
2019-05-26T03:11:53.770Z,65.98
2019-05-26T03:14:42.978Z,66.06
2019-05-26T03:17:28.875Z,65.79
2019-05-26T03:20:14.722Z,66.19
2019-05-26T03:23:00.982Z,66.34
2019-05-26T03:25:46.844Z,66.36
2019-05-26T03:28:35.739Z,66.34
2019-05-26T03:31:21.688Z,66.84
2019-05-26T03:34:07.923Z,67.27
2019-05-26T03:36:55.987Z,67.46
2019-05-26T03:39:46.371Z,67.62
2019-05-26T03:42:33.062Z,67.75
2019-05-26T03:45:19.494Z,67.77
2019-05-26T03:48:06.584Z,67.67
2019-05-26T03:50:53.016Z,67.90
2019-05-26T03:53:39.250Z,67.67
2019-05-26T03:56:25.506Z,67.72
2019-05-26T03:59:11.883Z,67.57
2019-05-26T04:01:58.110Z,67.54
2019-05-26T04:04:45.606Z,67.50
2019-05-26T04:07:31.518Z,67.39
2019-05-26T04:10:18.211Z,67.52
2019-05-26T04:13:04.434Z,67.50
2019-05-26T04:15:50.744Z,67.21
2019-05-26T04:18:36.815Z,67.06
2019-05-26T04:21:22.979Z,66.95
2019-05-26T04:24:09.201Z,67.43
2019-05-26T04:26:55.344Z,67.63
2019-05-26T04:29:41.436Z,67.52
2019-05-26T04:32:27.694Z,67.41
2019-05-26T04:35:16.957Z,67.77
2019-05-26T04:38:03.064Z,68.07
2019-05-26T04:40:49.073Z,68.29
2019-05-26T04:43:41.161Z,68.40
2019-05-26T04:46:27.174Z,68.28
2019-05-26T04:49:13.169Z,68.30
2019-05-26T04:52:00.183Z,68.02
2019-05-26T04:54:49.256Z,67.94
2019-05-26T04:57:38.611Z,67.92
2019-05-26T05:00:24.662Z,68.13
2019-05-26T05:03:12.800Z,68.16
2019-05-26T05:05:58.995Z,68.19
2019-05-26T05:08:45.152Z,68.00
2019-05-26T05:11:31.232Z,68.39
2019-05-26T05:14:17.284Z,67.93
2019-05-26T05:17:03.684Z,68.39
2019-05-26T05:19:49.621Z,68.22
2019-05-26T05:22:35.684Z,68.52
2019-05-26T05:25:24.680Z,68.15
2019-05-26T05:28:14.133Z,68.18
2019-05-26T05:31:00.664Z,67.62
2019-05-26T05:33:49.665Z,68.03
2019-05-26T05:36:35.846Z,67.50
2019-05-26T05:39:25.033Z,67.12
2019-05-26T05:42:10.984Z,67.04
2019-05-26T05:44:57.420Z,67.05
2019-05-26T05:47:43.874Z,66.82
2019-05-26T05:50:30.059Z,66.52
2019-05-26T05:53:19.652Z,65.27
2019-05-26T05:56:05.796Z,65.34
2019-05-26T05:58:53.797Z,64.47
2019-05-26T06:01:39.715Z,64.65
2019-05-26T06:04:25.792Z,63.83
2019-05-26T06:07:13.406Z,63.40
2019-05-26T06:10:00.927Z,63.25
2019-05-26T06:12:49.281Z,62.71
2019-05-26T06:15:36.028Z,62.35
2019-05-26T06:18:22.212Z,62.06
2019-05-26T06:21:08.558Z,61.69
2019-05-26T06:23:55.242Z,61.57
2019-05-26T06:26:41.434Z,60.66
2019-05-26T06:29:27.697Z,60.70
2019-05-26T06:32:14.937Z,60.35
2019-05-26T06:35:01.869Z,60.53
2019-05-26T06:37:51.083Z,60.16
2019-05-26T06:40:36.942Z,60.48
2019-05-26T06:43:22.903Z,59.75
2019-05-26T06:46:08.952Z,58.87
2019-05-26T06:48:54.896Z,58.02
2019-05-26T06:51:41.139Z,57.67
2019-05-26T06:54:27.263Z,57.48
2019-05-26T06:57:13.192Z,56.73
2019-05-26T06:59:59.489Z,56.29
2019-05-26T07:02:45.811Z,56.21
2019-05-26T07:05:31.661Z,55.58
2019-05-26T07:08:17.831Z,55.75
2019-05-26T07:11:03.827Z,55.62
2019-05-26T07:13:50.077Z,55.06
2019-05-26T07:16:38.380Z,55.83
2019-05-26T07:19:23.992Z,55.28
2019-05-26T07:22:09.950Z,55.26
2019-05-26T07:24:56.816Z,55.63
2019-05-26T07:27:42.945Z,55.96
2019-05-26T07:30:29.391Z,56.00
2019-05-26T07:33:15.488Z,56.07
2019-05-26T07:36:03.537Z,56.26
2019-05-26T07:38:50.148Z,55.67
2019-05-26T07:41:36.543Z,55.61
2019-05-26T07:44:22.727Z,55.36
2019-05-26T07:47:08.763Z,54.98
2019-05-26T07:49:55.667Z,55.35
2019-05-26T07:52:41.665Z,54.82
2019-05-26T07:55:27.937Z,54.52
2019-05-26T07:58:14.015Z,54.45
2019-05-26T08:01:00.047Z,52.80
2019-05-26T08:03:46.101Z,52.68
2019-05-26T08:06:32.359Z,52.56
2019-05-26T08:09:18.549Z,51.96
2019-05-26T08:12:25.053Z,52.17
2019-05-26T08:14:59.182Z,51.77
2019-05-26T08:17:48.375Z,51.89
2019-05-26T08:20:34.625Z,51.46
2019-05-26T08:23:20.964Z,51.38
2019-05-26T08:26:07.270Z,51.11
2019-05-26T08:28:54.935Z,50.10
2019-05-26T08:31:41.657Z,50.24
2019-05-26T08:34:27.732Z,49.12
2019-05-26T08:37:13.787Z,48.87
2019-05-26T08:40:18.212Z,47.61
2019-05-26T08:43:04.240Z,47.19
2019-05-26T08:45:50.290Z,46.98
2019-05-26T08:48:36.309Z,46.52
2019-05-26T08:51:22.527Z,46.38
2019-05-26T08:54:11.531Z,45.71
2019-05-26T08:56:57.538Z,45.74
2019-05-26T08:59:43.861Z,45.25
2019-05-26T09:02:30.212Z,45.20
2019-05-26T09:05:16.560Z,45.89
2019-05-26T09:08:08.114Z,45.45
2019-05-26T09:10:53.561Z,45.14
2019-05-26T09:13:39.602Z,45.28
2019-05-26T09:16:25.855Z,44.79
2019-05-26T09:19:12.171Z,44.31
2019-05-26T09:21:58.151Z,44.02
2019-05-26T09:24:44.339Z,44.25
2019-05-26T09:27:30.439Z,44.02
2019-05-26T09:30:17.331Z,44.53
2019-05-26T09:33:03.598Z,44.66
2019-05-26T09:35:53.103Z,44.56
2019-05-26T09:38:39.110Z,44.30
2019-05-26T09:41:25.154Z,44.08
2019-05-26T09:44:11.209Z,44.40
2019-05-26T09:46:57.144Z,44.60
2019-05-26T09:49:43.128Z,44.49
2019-05-26T09:52:29.475Z,44.52
2019-05-26T09:55:15.727Z,44.56
2019-05-26T09:58:01.942Z,44.56
2019-05-26T10:00:47.858Z,44.45
2019-05-26T10:03:36.917Z,44.84
2019-05-26T10:06:23.568Z,44.66
2019-05-26T10:09:09.903Z,44.16
2019-05-26T10:11:56.233Z,44.00
2019-05-26T10:14:42.593Z,43.95
2019-05-26T10:17:29.099Z,43.40
2019-05-26T10:20:18.024Z,43.43
2019-05-26T10:23:04.753Z,43.49
2019-05-26T10:25:50.742Z,43.28
2019-05-26T10:28:36.986Z,42.76
2019-05-26T10:31:23.193Z,42.44
2019-05-26T10:34:09.365Z,42.38
2019-05-26T10:36:56.609Z,41.97
2019-05-26T10:39:44.990Z,41.83
2019-05-26T10:42:30.208Z,41.83
2019-05-26T10:45:17.009Z,41.72
2019-05-26T10:48:03.080Z,41.42
2019-05-26T10:50:49.454Z,41.69
2019-05-26T10:53:35.688Z,42.55
2019-05-26T10:56:22.140Z,42.08
2019-05-26T10:59:08.291Z,41.74
2019-05-26T11:01:54.365Z,42.21
2019-05-26T11:04:40.632Z,42.55
2019-05-26T11:07:27.039Z,42.33
2019-05-26T11:10:14.403Z,42.52
2019-05-26T11:13:00.946Z,41.98
2019-05-26T11:15:47.111Z,41.79
2019-05-26T11:18:33.684Z,41.81
2019-05-26T11:21:26.674Z,41.61
2019-05-26T11:24:13.590Z,41.68
2019-05-26T11:27:09.312Z,42.19
2019-05-26T11:29:47.986Z,42.12
2019-05-26T11:32:38.657Z,42.27
2019-05-26T11:35:28.233Z,42.33
2019-05-26T11:38:16.582Z,43.03
2019-05-26T11:41:02.545Z,43.03
2019-05-26T11:43:49.109Z,42.32
2019-05-26T11:46:36.602Z,42.22
2019-05-26T11:49:22.905Z,42.78
2019-05-26T11:52:10.254Z,42.48
2019-05-26T11:54:56.722Z,41.65
2019-05-26T11:57:43.093Z,42.08
2019-05-26T12:00:29.351Z,41.30
2019-05-26T12:03:16.973Z,41.30
2019-05-26T12:06:03.646Z,40.36
2019-05-26T12:08:50.079Z,40.73
2019-05-26T12:11:36.380Z,41.24
2019-05-26T12:14:34.388Z,41.29
2019-05-26T12:17:13.911Z,41.77
2019-05-26T12:20:04.885Z,41.98
2019-05-26T12:22:49.081Z,42.26
2019-05-26T12:25:35.321Z,41.86
2019-05-26T12:28:22.253Z,42.03
2019-05-26T12:31:08.711Z,42.34
2019-05-26T12:33:55.306Z,41.36
2019-05-26T12:36:42.143Z,41.40
2019-05-26T12:39:30.848Z,41.37
2019-05-26T12:42:17.341Z,41.62
2019-05-26T12:45:03.703Z,41.78
2019-05-26T12:47:49.858Z,41.97
2019-05-26T12:50:35.906Z,42.45
2019-05-26T12:53:23.179Z,42.07
2019-05-26T12:56:09.503Z,42.14
2019-05-26T12:58:56.164Z,42.18
2019-05-26T13:01:43.588Z,41.86
2019-05-26T13:04:29.687Z,41.82
2019-05-26T13:07:16.135Z,42.08
2019-05-26T13:10:02.594Z,41.76
2019-05-26T13:12:48.776Z,41.55
2019-05-26T13:15:34.934Z,41.03
2019-05-26T13:18:21.118Z,41.30
2019-05-26T13:21:07.591Z,40.28
2019-05-26T13:23:54.017Z,40.09
2019-05-26T13:26:40.382Z,39.76
2019-05-26T13:29:29.181Z,40.59
2019-05-26T13:32:15.475Z,39.94
2019-05-26T13:35:01.814Z,40.14
2019-05-26T13:37:50.107Z,40.20
2019-05-26T13:40:36.509Z,40.60
2019-05-26T13:43:22.738Z,40.62
2019-05-26T13:46:09.522Z,41.08
2019-05-26T13:48:55.718Z,41.23
2019-05-26T13:51:42.371Z,40.77
2019-05-26T13:54:28.402Z,41.10
2019-05-26T13:57:14.560Z,40.75
2019-05-26T14:00:00.867Z,40.48
2019-05-26T14:02:46.987Z,40.37
2019-05-26T14:05:33.288Z,40.66
2019-05-26T14:08:19.331Z,40.45
2019-05-26T14:11:05.514Z,40.60
2019-05-26T14:13:51.989Z,40.87
2019-05-26T14:16:38.235Z,41.16
2019-05-26T14:19:24.824Z,41.10
2019-05-26T14:22:11.140Z,41.44
2019-05-26T14:24:57.764Z,41.28
2019-05-26T14:27:43.912Z,41.62
2019-05-26T14:30:32.439Z,41.62
2019-05-26T14:33:18.896Z,41.42
2019-05-26T14:36:05.580Z,41.35
2019-05-26T14:38:52.372Z,41.35
2019-05-26T14:41:39.284Z,42.29
2019-05-26T14:44:25.266Z,41.86
2019-05-26T14:47:11.500Z,41.47
2019-05-26T14:49:57.482Z,41.81
2019-05-26T14:52:43.599Z,41.44
2019-05-26T14:55:29.568Z,41.83
2019-05-26T14:58:16.879Z,41.99
2019-05-26T15:01:03.254Z,42.05
2019-05-26T15:03:49.553Z,42.27
2019-05-26T15:06:35.818Z,42.86
2019-05-26T15:09:25.170Z,43.45
2019-05-26T15:12:09.913Z,43.42
2019-05-26T15:14:56.070Z,43.36
2019-05-26T15:17:42.178Z,43.49
2019-05-26T15:20:28.689Z,43.84
2019-05-26T15:23:15.454Z,44.26
2019-05-26T15:26:05.209Z,44.32
2019-05-26T15:28:49.292Z,44.64
2019-05-26T15:31:35.692Z,44.78
2019-05-26T15:34:21.819Z,44.87
2019-05-26T15:37:08.162Z,44.82
2019-05-26T15:39:54.165Z,44.53
2019-05-26T15:42:40.187Z,44.60
2019-05-26T15:45:28.216Z,44.68
2019-05-26T15:48:14.501Z,44.89
2019-05-26T15:51:00.676Z,45.15
2019-05-26T15:53:46.902Z,44.99
2019-05-26T15:56:32.871Z,44.89
2019-05-26T15:59:19.492Z,44.84
2019-05-26T16:02:05.585Z,44.76
2019-05-26T16:04:51.691Z,44.95
2019-05-26T16:07:38.438Z,45.18
2019-05-26T16:10:24.840Z,45.32
2019-05-26T16:13:11.113Z,45.78
2019-05-26T16:15:57.533Z,45.78
2019-05-26T16:18:46.644Z,45.74
2019-05-26T16:21:32.740Z,45.78
2019-05-26T16:24:19.325Z,45.94
2019-05-26T16:27:18.680Z,45.72
2019-05-26T16:29:54.514Z,45.78
2019-05-26T16:32:40.913Z,45.83
2019-05-26T16:35:27.730Z,45.69
2019-05-26T16:38:14.181Z,45.67
2019-05-26T16:41:00.610Z,45.80
2019-05-26T16:43:47.313Z,45.53
2019-05-26T16:46:33.826Z,45.45
2019-05-26T16:49:20.616Z,45.39
2019-05-26T16:52:06.662Z,45.65
2019-05-26T16:54:52.566Z,46.00
2019-05-26T16:57:38.652Z,46.43
2019-05-26T17:00:25.016Z,46.54
2019-05-26T17:03:11.316Z,46.48
2019-05-26T17:06:07.465Z,46.42
2019-05-26T17:08:45.774Z,46.51
2019-05-26T17:11:32.027Z,46.18
2019-05-26T17:14:18.168Z,46.68
2019-05-26T17:17:14.275Z,46.74
2019-05-26T17:19:53.023Z,46.52
2019-05-26T17:22:39.188Z,46.84
2019-05-26T17:25:25.416Z,46.84
2019-05-26T17:28:14.568Z,46.67
2019-05-26T17:31:00.950Z,46.86
2019-05-26T17:33:47.575Z,46.40
2019-05-26T17:36:33.815Z,46.66
2019-05-26T17:39:20.304Z,46.86
2019-05-26T17:42:06.473Z,46.50
2019-05-26T17:44:53.324Z,46.35
2019-05-26T17:47:39.730Z,46.26
2019-05-26T17:50:26.008Z,46.17
2019-05-26T17:53:12.078Z,46.28
2019-05-26T17:56:03.560Z,46.05
2019-05-26T17:58:49.623Z,45.89
2019-05-26T18:01:38.778Z,45.74
2019-05-26T18:04:24.877Z,45.39
2019-05-26T18:07:11.363Z,45.49
2019-05-26T18:09:59.562Z,45.81
2019-05-26T18:12:45.969Z,46.15
2019-05-26T18:15:33.202Z,46.28
2019-05-26T18:18:19.580Z,46.75
2019-05-26T18:21:06.078Z,46.59
2019-05-26T18:23:52.399Z,46.47
2019-05-26T18:26:39.092Z,46.61
2019-05-26T18:29:25.165Z,46.67
2019-05-26T18:32:11.575Z,46.61
2019-05-26T18:34:58.392Z,46.94
2019-05-26T18:37:44.390Z,46.92
2019-05-26T18:40:30.529Z,47.34
2019-05-26T18:43:16.937Z,47.60
2019-05-26T18:46:03.206Z,47.79
2019-05-26T18:48:49.661Z,47.78
2019-05-26T18:51:36.310Z,47.47
2019-05-26T18:54:23.427Z,47.35
2019-05-26T18:57:09.794Z,47.45
2019-05-26T18:59:56.167Z,47.56
2019-05-26T19:02:42.345Z,47.28
2019-05-26T19:05:33.667Z,46.37
2019-05-26T19:08:16.720Z,45.52
2019-05-26T19:11:03.313Z,45.35
2019-05-26T19:13:49.370Z,44.76
2019-05-26T19:16:35.608Z,44.64
2019-05-26T19:19:21.705Z,44.49
2019-05-26T19:22:08.291Z,44.35
2019-05-26T19:24:54.446Z,45.00
2019-05-26T19:27:40.594Z,44.28
2019-05-26T19:30:28.025Z,44.28
2019-05-26T19:33:14.384Z,44.39
2019-05-26T19:36:07.795Z,44.37
2019-05-26T19:38:50.643Z,45.37
2019-05-26T19:41:39.641Z,44.35
2019-05-26T19:44:28.694Z,44.38
2019-05-26T19:47:15.020Z,43.82
2019-05-26T19:50:01.301Z,43.82
2019-05-26T19:52:49.923Z,43.95
2019-05-26T19:55:35.486Z,43.49
2019-05-26T19:58:21.962Z,43.39
2019-05-26T20:01:08.669Z,43.88
2019-05-26T20:03:55.916Z,43.78
2019-05-26T20:06:45.021Z,43.78
2019-05-26T20:09:31.225Z,43.63
2019-05-26T20:12:17.784Z,43.55
2019-05-26T20:15:04.252Z,43.71
2019-05-26T20:17:50.632Z,43.71
2019-05-26T20:20:36.783Z,43.67
2019-05-26T20:23:22.826Z,44.08
2019-05-26T20:26:09.174Z,43.95
2019-05-26T20:28:55.667Z,44.98
2019-05-26T20:31:41.757Z,44.18
2019-05-26T20:34:27.762Z,44.21
2019-05-26T20:37:13.998Z,44.28
2019-05-26T20:40:00.071Z,44.62
2019-05-26T20:42:46.697Z,45.29
2019-05-26T20:45:33.213Z,45.34
2019-05-26T20:48:19.377Z,45.64
2019-05-26T20:51:05.822Z,46.11
2019-05-26T20:53:53.431Z,46.11
2019-05-26T20:56:39.493Z,46.65
2019-05-26T20:59:26.038Z,47.08
2019-05-26T21:02:12.431Z,47.82
2019-05-26T21:04:58.781Z,48.03
2019-05-26T21:07:45.338Z,49.13
2019-05-26T21:10:31.813Z,49.50
2019-05-26T21:13:17.914Z,49.99
2019-05-26T21:16:04.159Z,50.25
2019-05-26T21:18:50.266Z,51.26
2019-05-26T21:21:36.687Z,51.89
2019-05-26T21:24:23.233Z,51.93
2019-05-26T21:27:09.411Z,52.09
2019-05-26T21:29:55.733Z,52.90
2019-05-26T21:32:45.212Z,53.38
2019-05-26T21:35:32.062Z,53.32
2019-05-26T21:38:18.105Z,54.19
2019-05-26T21:41:10.712Z,53.96
2019-05-26T21:43:56.670Z,53.81
2019-05-26T21:46:44.217Z,53.91
2019-05-26T21:49:30.693Z,54.50
2019-05-26T21:52:17.173Z,54.66
2019-05-26T21:55:03.918Z,54.63
2019-05-26T21:57:50.688Z,55.32
2019-05-26T22:00:41.395Z,55.44
2019-05-26T22:03:27.418Z,55.81
2019-05-26T22:06:13.368Z,55.64
2019-05-26T22:08:59.377Z,55.94
2019-05-26T22:11:47.616Z,56.10
2019-05-26T22:14:36.772Z,56.46
2019-05-26T22:17:25.674Z,56.95
2019-05-26T22:20:11.901Z,57.04
2019-05-26T22:22:57.884Z,57.16
2019-05-26T22:25:43.838Z,57.15
2019-05-26T22:28:30.034Z,57.27
2019-05-26T22:31:16.148Z,57.65
2019-05-26T22:34:02.478Z,57.87
2019-05-26T22:36:48.828Z,57.99
2019-05-26T22:39:35.077Z,57.86
2019-05-26T22:42:23.871Z,57.82
2019-05-26T22:45:10.223Z,57.97
2019-05-26T22:47:56.272Z,58.52
2019-05-26T22:50:42.270Z,58.60
2019-05-26T22:53:29.178Z,59.49
2019-05-26T22:56:15.576Z,58.92
2019-05-26T22:59:02.588Z,58.63
2019-05-26T23:01:54.624Z,58.52
2019-05-26T23:04:40.744Z,58.32
2019-05-26T23:07:27.031Z,58.84
2019-05-26T23:10:13.149Z,58.51
2019-05-26T23:13:03.191Z,58.89
2019-05-26T23:15:49.130Z,58.64
2019-05-26T23:18:35.122Z,58.56
2019-05-26T23:21:28.194Z,58.83
2019-05-26T23:24:14.540Z,58.74
2019-05-26T23:27:00.683Z,58.77
2019-05-26T23:29:47.040Z,59.19
2019-05-26T23:32:33.787Z,59.82
2019-05-26T23:35:19.880Z,59.56
2019-05-26T23:38:08.923Z,59.40
2019-05-26T23:40:55.184Z,59.14
2019-05-26T23:43:43.892Z,59.12
2019-05-26T23:46:30.467Z,58.84
2019-05-26T23:49:16.541Z,58.83
2019-05-26T23:52:02.516Z,59.41
2019-05-26T23:54:51.486Z,59.57
2019-05-26T23:57:41.073Z,59.81
